Time;durP1;ratioP1;P1;durP2;ratioP2;P2;SDS_P1;SDS_P2;PMS_P1;PMS_P2;Temp;Humidity;BMP_temperature;BMP_pressure;BME280_temperature;BME280_humidity;BME280_pressure;Samples;Min_cycle;Max_cycle;Signal;HPM_P1;HPM_P2
2023/08/30 00:01:34;;;;;;;241.83;234.67;;;15.50;99.90;;;;;;5020364;28;20178;-89
2023/08/30 00:04:00;;;;;;;254.57;246.97;;;15.60;99.90;;;;;;5020609;28;20201;-92
2023/08/30 00:06:26;;;;;;;261.20;253.60;;;15.60;99.90;;;;;;5031073;28;20248;-89
2023/08/30 00:08:51;;;;;;;244.43;237.27;;;15.60;99.90;;;;;;5039303;28;20411;-89
2023/08/30 00:11:17;;;;;;;284.70;276.33;;;15.60;99.90;;;;;;5039109;28;20239;-90
2023/08/30 00:13:43;;;;;;;300.80;291.77;;;15.40;99.90;;;;;;5039317;28;20208;-89
2023/08/30 00:16:09;;;;;;;294.90;286.30;;;15.30;99.90;;;;;;5039256;28;20200;-89
2023/08/30 00:18:34;;;;;;;334.57;324.67;;;15.30;99.90;;;;;;5039132;28;20275;-90
2023/08/30 00:21:00;;;;;;;309.73;300.30;;;15.30;99.90;;;;;;5037435;28;20187;-90
2023/08/30 00:23:26;;;;;;;298.77;290.00;;;15.30;99.90;;;;;;5038609;28;20207;-90
2023/08/30 00:25:51;;;;;;;337.70;327.73;;;15.30;99.90;;;;;;5036788;28;20180;-90
2023/08/30 00:28:17;;;;;;;310.30;301.17;;;15.30;99.90;;;;;;5036988;28;20235;-89
2023/08/30 00:30:42;;;;;;;316.90;307.47;;;15.40;99.90;;;;;;5037064;28;20225;-90
2023/08/30 00:33:08;;;;;;;313.97;304.50;;;15.30;99.90;;;;;;5037388;28;20355;-90
2023/08/30 00:35:34;;;;;;;344.40;334.10;;;15.40;99.90;;;;;;5041838;28;20181;-88
2023/08/30 00:38:00;;;;;;;343.03;332.93;;;15.30;99.90;;;;;;5041863;28;20174;-90
2023/08/30 00:40:26;;;;;;;329.93;319.97;;;15.20;99.90;;;;;;5039626;28;20235;-90
2023/08/30 00:42:52;;;;;;;312.83;303.70;;;15.30;99.90;;;;;;5039526;28;20181;-90
2023/08/30 00:45:18;;;;;;;297.47;288.80;;;15.40;99.90;;;;;;5039906;28;20182;-89
2023/08/30 00:47:44;;;;;;;275.47;267.53;;;15.50;99.90;;;;;;5039012;28;20180;-91
2023/08/30 00:50:10;;;;;;;297.40;288.43;;;15.40;99.90;;;;;;5037978;28;20227;-90
2023/08/30 00:52:35;;;;;;;296.50;287.90;;;15.40;99.90;;;;;;5038758;28;20181;-89
2023/08/30 00:55:01;;;;;;;307.57;298.43;;;15.40;99.90;;;;;;5039658;28;20766;-89
2023/08/30 00:57:27;;;;;;;277.50;269.40;;;15.50;99.90;;;;;;5038678;28;20374;-90
2023/08/30 00:59:54;;;;;;;287.30;278.87;;;15.60;99.90;;;;;;5040415;28;20180;-89
2023/08/30 01:02:19;;;;;;;283.17;274.83;;;15.50;99.90;;;;;;5039435;28;20181;-89
2023/08/30 01:04:45;;;;;;;290.53;281.93;;;15.40;99.90;;;;;;5039860;28;20340;-89
2023/08/30 01:07:11;;;;;;;304.50;295.57;;;15.50;99.90;;;;;;5040074;28;20173;-90
2023/08/30 01:09:37;;;;;;;332.93;323.00;;;15.30;99.90;;;;;;5040476;28;20187;-90
2023/08/30 01:12:12;;;;;;;305.77;296.73;;;15.30;99.90;;;;;;5038282;28;20213;-90
2023/08/30 01:14:57;;;;;;;363.00;351.77;;;15.30;99.90;;;;;;5024278;28;20232;-91
2023/08/30 01:17:24;;;;;;;351.50;341.10;;;15.30;99.90;;;;;;5020351;28;20229;-90
2023/08/30 01:20:15;;;;;;;360.67;350.00;;;15.20;99.90;;;;;;5017757;28;20181;-90
2023/08/30 01:23:09;;;;;;;332.27;322.40;;;15.20;99.90;;;;;;5018387;28;20231;-90
2023/08/30 01:26:03;;;;;;;290.07;281.67;;;15.30;99.90;;;;;;5018292;28;20176;-91
2023/08/30 01:28:31;;;;;;;288.30;279.67;;;15.40;99.90;;;;;;5006854;28;20234;-89
2023/08/30 01:31:00;;;;;;;305.73;296.83;;;15.50;99.90;;;;;;4999947;28;20244;-90
2023/08/30 01:33:27;;;;;;;306.27;297.30;;;15.40;99.90;;;;;;5017036;28;20209;-90
2023/08/30 01:35:59;;;;;;;317.13;307.67;;;15.40;99.90;;;;;;5019118;28;20191;-90
2023/08/30 01:38:29;;;;;;;331.07;321.27;;;15.30;99.90;;;;;;5019792;28;20184;-90
2023/08/30 01:40:58;;;;;;;353.37;342.60;;;15.30;99.90;;;;;;5019435;28;20181;-90
2023/08/30 01:43:29;;;;;;;350.57;339.80;;;15.20;99.90;;;;;;5019476;28;20221;-90
2023/08/30 01:45:56;;;;;;;353.93;343.43;;;15.10;99.90;;;;;;5019192;28;20177;-90
2023/08/30 01:48:23;;;;;;;338.60;328.60;;;15.10;99.90;;;;;;5018587;28;20268;-90
2023/08/30 01:50:49;;;;;;;333.03;323.10;;;15.20;99.90;;;;;;5018569;28;20232;-91
2023/08/30 01:53:15;;;;;;;333.10;323.33;;;15.30;99.90;;;;;;5018329;28;20313;-89
2023/08/30 01:55:42;;;;;;;329.37;319.67;;;15.40;99.90;;;;;;5018391;28;20174;-90
2023/08/30 01:58:08;;;;;;;313.00;303.80;;;15.40;99.90;;;;;;5022710;28;20413;-89
2023/08/30 02:00:35;;;;;;;311.50;302.27;;;15.40;99.90;;;;;;5022811;28;20182;-90
2023/08/30 02:03:16;;;;;;;312.53;303.23;;;15.40;99.90;;;;;;5022272;28;20193;-89
2023/08/30 02:06:02;;;;;;;321.53;311.83;;;15.30;99.90;;;;;;5029322;28;20192;-90
2023/08/30 02:08:38;;;;;;;333.17;323.10;;;15.30;99.90;;;;;;5022556;28;20192;-89
2023/08/30 02:11:11;;;;;;;331.73;321.90;;;15.30;99.90;;;;;;5033876;28;20850;-90
2023/08/30 02:13:38;;;;;;;348.03;337.30;;;15.20;99.90;;;;;;5028320;28;20275;-92
2023/08/30 02:16:04;;;;;;;350.17;339.67;;;15.30;99.90;;;;;;5023300;28;20265;-90
2023/08/30 02:18:30;;;;;;;347.33;337.03;;;15.40;99.90;;;;;;5024417;28;20170;-90
2023/08/30 02:20:56;;;;;;;336.43;326.33;;;15.50;99.90;;;;;;5022479;28;20547;-88
2023/08/30 02:23:25;;;;;;;325.83;316.00;;;15.50;99.90;;;;;;5024839;28;20205;-90
2023/08/30 02:25:51;;;;;;;340.13;329.90;;;15.50;99.90;;;;;;5026414;28;20185;-89
2023/08/30 02:28:17;;;;;;;334.97;325.07;;;15.40;99.90;;;;;;5024217;28;20506;-90
2023/08/30 02:30:43;;;;;;;358.17;347.27;;;15.50;99.90;;;;;;5023784;28;20206;-91
2023/08/30 02:33:08;;;;;;;345.37;334.97;;;15.40;99.90;;;;;;5022857;28;20217;-89
2023/08/30 02:35:34;;;;;;;363.33;352.47;;;15.20;99.90;;;;;;5022991;28;20188;-89
2023/08/30 02:38:04;;;;;;;348.83;338.40;;;15.20;99.90;;;;;;5005584;28;20415;-91
2023/08/30 02:40:30;;;;;;;332.30;322.33;;;15.30;99.90;;;;;;5021703;28;20173;-91
2023/08/30 02:42:56;;;;;;;342.10;331.80;;;15.20;99.90;;;;;;5021614;28;20220;-90
2023/08/30 02:45:21;;;;;;;353.47;342.87;;;15.30;99.90;;;;;;5022560;28;20711;-89
2023/08/30 02:47:48;;;;;;;358.17;347.40;;;15.20;99.90;;;;;;5020371;28;20178;-88
2023/08/30 02:50:14;;;;;;;352.70;342.23;;;15.20;99.90;;;;;;5020535;28;20199;-91
2023/08/30 02:52:39;;;;;;;365.93;354.93;;;15.20;99.90;;;;;;5021744;28;20185;-90
2023/08/30 02:55:06;;;;;;;357.70;346.67;;;15.20;99.90;;;;;;5021839;28;20225;-90
2023/08/30 02:57:32;;;;;;;359.93;348.83;;;15.20;99.90;;;;;;5021309;28;20674;-89
2023/08/30 02:59:57;;;;;;;370.67;359.63;;;15.30;99.90;;;;;;5021499;28;20216;-90
2023/08/30 03:02:23;;;;;;;354.13;343.33;;;15.20;99.90;;;;;;5027497;28;20191;-90
2023/08/30 03:04:49;;;;;;;355.63;344.87;;;15.20;99.90;;;;;;5040388;28;20212;-89
2023/08/30 03:07:15;;;;;;;354.03;343.07;;;15.30;99.90;;;;;;5040458;28;20191;-91
2023/08/30 03:09:40;;;;;;;345.13;334.93;;;15.10;99.90;;;;;;5038511;28;20180;-90
2023/08/30 03:12:06;;;;;;;350.87;340.13;;;15.10;99.90;;;;;;5041006;28;20208;-90
2023/08/30 03:14:32;;;;;;;333.50;323.63;;;15.10;99.90;;;;;;5038572;28;20235;-90
2023/08/30 03:16:58;;;;;;;334.37;324.57;;;14.90;99.90;;;;;;5039617;28;20180;-89
2023/08/30 03:19:23;;;;;;;340.67;330.33;;;14.90;99.90;;;;;;5039493;28;20204;-90
2023/08/30 03:21:49;;;;;;;347.83;337.47;;;14.90;99.90;;;;;;5037746;28;20180;-91
2023/08/30 03:24:15;;;;;;;365.27;354.43;;;14.90;99.90;;;;;;5038236;28;20886;-90
2023/08/30 03:26:43;;;;;;;359.23;348.40;;;15.10;99.90;;;;;;5038633;28;20368;-88
2023/08/30 03:29:09;;;;;;;355.20;344.73;;;15.00;99.90;;;;;;5040747;28;20181;-91
2023/08/30 03:31:35;;;;;;;368.70;357.47;;;15.00;99.90;;;;;;5042059;28;20270;-90
2023/08/30 03:34:00;;;;;;;363.30;352.57;;;14.90;99.90;;;;;;5042219;28;20265;-89
2023/08/30 03:36:26;;;;;;;383.20;371.47;;;15.00;99.90;;;;;;5041314;28;20561;-90
2023/08/30 03:38:52;;;;;;;394.17;381.80;;;15.10;99.90;;;;;;5039934;28;20173;-90
2023/08/30 03:41:20;;;;;;;373.97;362.63;;;15.10;99.90;;;;;;5041184;28;20200;-90
2023/08/30 03:43:46;;;;;;;376.97;365.57;;;15.10;99.90;;;;;;5041659;28;20275;-89
2023/08/30 03:46:12;;;;;;;376.10;364.87;;;15.10;99.90;;;;;;5040990;28;20209;-89
2023/08/30 03:48:38;;;;;;;376.67;365.23;;;15.00;99.90;;;;;;5040286;28;20207;-89
2023/08/30 03:51:03;;;;;;;380.83;369.33;;;15.10;99.90;;;;;;5040343;28;20204;-89
2023/08/30 03:53:30;;;;;;;382.60;370.80;;;15.10;99.90;;;;;;5040436;28;20667;-92
2023/08/30 03:55:56;;;;;;;382.53;370.87;;;15.00;99.90;;;;;;5040801;28;20173;-93
2023/08/30 03:58:21;;;;;;;382.20;370.53;;;15.00;99.90;;;;;;5040385;28;20192;-89
2023/08/30 04:00:47;;;;;;;370.13;359.00;;;15.00;99.90;;;;;;5040854;28;20194;-89
2023/08/30 04:03:14;;;;;;;377.60;366.33;;;15.00;99.90;;;;;;5026966;28;20246;-90
2023/08/30 04:05:40;;;;;;;383.57;372.10;;;15.00;99.90;;;;;;5020522;28;20191;-90
2023/08/30 04:08:07;;;;;;;385.17;373.17;;;15.00;99.90;;;;;;5021528;28;20185;-89
2023/08/30 04:10:36;;;;;;;375.67;364.37;;;15.10;99.90;;;;;;5053875;28;20218;-90
2023/08/30 04:13:03;;;;;;;369.20;358.20;;;15.10;99.90;;;;;;5061554;28;20240;-89
2023/08/30 04:15:29;;;;;;;364.57;353.63;;;15.10;99.90;;;;;;5065011;28;20182;-88
2023/08/30 04:17:54;;;;;;;367.73;356.63;;;15.10;99.90;;;;;;5060349;28;20189;-90
2023/08/30 04:20:20;;;;;;;386.40;374.77;;;14.90;99.90;;;;;;5058929;28;20242;-89
2023/08/30 04:22:45;;;;;;;366.83;355.43;;;14.90;99.90;;;;;;5057945;28;20204;-90
2023/08/30 04:25:11;;;;;;;374.37;363.03;;;15.00;99.90;;;;;;5059673;28;20217;-90
2023/08/30 04:27:40;;;;;;;367.93;356.90;;;15.00;99.90;;;;;;5059716;28;20182;-90
2023/08/30 04:30:06;;;;;;;370.77;359.37;;;15.10;99.90;;;;;;5058310;28;20173;-90
2023/08/30 04:32:32;;;;;;;372.27;361.07;;;15.10;99.90;;;;;;5058993;28;20234;-91
2023/08/30 04:34:58;;;;;;;379.57;368.13;;;15.00;99.90;;;;;;5059065;28;20200;-90
2023/08/30 04:37:23;;;;;;;370.43;359.03;;;15.00;99.90;;;;;;5059124;28;20184;-88
2023/08/30 04:39:49;;;;;;;382.40;370.60;;;15.00;99.90;;;;;;5058528;28;20204;-88
2023/08/30 04:42:15;;;;;;;365.53;354.47;;;14.90;99.90;;;;;;5058578;28;20202;-90
2023/08/30 04:44:41;;;;;;;377.93;366.37;;;14.90;99.90;;;;;;5058154;28;20231;-90
2023/08/30 04:47:06;;;;;;;375.57;364.17;;;15.00;99.90;;;;;;5058313;28;20181;-90
2023/08/30 04:49:32;;;;;;;371.00;359.80;;;15.10;99.90;;;;;;5058198;28;20176;-89
2023/08/30 04:51:58;;;;;;;376.50;365.17;;;15.10;99.90;;;;;;5058841;28;20206;-89
2023/08/30 04:54:24;;;;;;;378.77;367.37;;;15.00;99.90;;;;;;5054497;28;20217;-89
2023/08/30 04:56:49;;;;;;;387.63;375.77;;;15.10;99.90;;;;;;5037524;28;20238;-89
2023/08/30 04:59:15;;;;;;;379.40;367.97;;;15.10;99.90;;;;;;5049844;28;20193;-90
2023/08/30 05:01:44;;;;;;;389.40;377.60;;;15.20;99.90;;;;;;5058463;28;20208;-91
2023/08/30 05:04:10;;;;;;;369.97;358.67;;;15.10;99.90;;;;;;5058635;28;20337;-90
2023/08/30 05:06:36;;;;;;;378.97;367.60;;;15.20;99.90;;;;;;5044687;28;20217;-90
2023/08/30 05:09:02;;;;;;;385.27;373.43;;;15.10;99.90;;;;;;5036219;28;20666;-90
2023/08/30 05:11:28;;;;;;;380.50;369.10;;;15.00;99.90;;;;;;5046587;28;20256;-90
2023/08/30 05:13:54;;;;;;;367.63;356.53;;;15.10;99.90;;;;;;5036711;28;20206;-91
2023/08/30 05:16:20;;;;;;;366.50;355.57;;;15.10;99.90;;;;;;5036193;28;20177;-91
2023/08/30 05:18:47;;;;;;;373.93;362.70;;;15.00;99.90;;;;;;5035594;28;20312;-91
2023/08/30 05:21:14;;;;;;;376.43;365.03;;;15.10;99.90;;;;;;5034818;28;20182;-89
2023/08/30 05:23:42;;;;;;;376.47;365.10;;;15.10;99.90;;;;;;5037292;28;20311;-90
2023/08/30 05:26:14;;;;;;;374.20;362.97;;;15.20;99.90;;;;;;5037773;28;20176;-91
2023/08/30 05:28:39;;;;;;;370.93;359.77;;;15.10;99.90;;;;;;5037147;28;20184;-90
2023/08/30 05:31:05;;;;;;;366.80;355.77;;;15.20;99.90;;;;;;5037571;28;20213;-89
2023/08/30 05:33:31;;;;;;;372.97;361.67;;;15.40;99.90;;;;;;5037219;28;20275;-89
2023/08/30 05:35:57;;;;;;;385.13;373.17;;;15.30;99.90;;;;;;5037632;28;20207;-91
2023/08/30 05:38:23;;;;;;;380.60;368.70;;;15.20;99.90;;;;;;5037838;28;20192;-88
2023/08/30 05:40:48;;;;;;;375.43;363.97;;;15.20;99.90;;;;;;5036793;28;20185;-90
2023/08/30 05:43:15;;;;;;;362.83;351.87;;;15.20;99.90;;;;;;5037749;28;20207;-90
2023/08/30 05:45:41;;;;;;;377.10;365.67;;;15.30;99.90;;;;;;5037799;28;20231;-90
2023/08/30 05:48:07;;;;;;;354.97;344.13;;;15.40;99.90;;;;;;5037788;28;20174;-91
2023/08/30 05:50:32;;;;;;;370.07;358.53;;;15.30;99.90;;;;;;5037757;28;20234;-90
2023/08/30 05:52:58;;;;;;;374.40;362.63;;;15.30;99.90;;;;;;5036771;28;20180;-89
2023/08/30 05:55:24;;;;;;;385.33;373.63;;;15.30;99.90;;;;;;5025272;28;20220;-90
2023/08/30 05:57:49;;;;;;;375.17;363.73;;;15.40;99.90;;;;;;5020810;28;20223;-89
2023/08/30 06:00:15;;;;;;;350.43;340.03;;;15.50;99.90;;;;;;5024084;28;20265;-90
2023/08/30 06:02:41;;;;;;;337.17;326.97;;;15.60;99.90;;;;;;5018385;28;20257;-90
2023/08/30 06:05:07;;;;;;;356.20;345.77;;;15.50;99.90;;;;;;5017311;28;20224;-89
2023/08/30 06:07:33;;;;;;;350.17;339.70;;;15.50;99.90;;;;;;5037379;28;20188;-88
2023/08/30 06:09:59;;;;;;;328.80;319.17;;;15.50;99.90;;;;;;5048809;28;20184;-90
2023/08/30 06:12:25;;;;;;;371.43;360.30;;;15.50;99.90;;;;;;5057619;28;20196;-91
2023/08/30 06:14:52;;;;;;;376.50;365.10;;;15.50;99.90;;;;;;5058129;28;20204;-90
2023/08/30 06:17:21;;;;;;;362.60;351.67;;;15.60;99.90;;;;;;5058187;28;20808;-89
2023/08/30 06:19:47;;;;;;;365.27;354.23;;;15.60;99.90;;;;;;5057517;28;20181;-90
2023/08/30 06:22:13;;;;;;;372.13;360.80;;;15.60;99.90;;;;;;5057338;28;20174;-90
2023/08/30 06:24:39;;;;;;;384.13;372.50;;;15.50;99.90;;;;;;5057226;28;20211;-89
2023/08/30 06:27:05;;;;;;;379.03;367.50;;;15.50;99.90;;;;;;5057190;28;20212;-90
2023/08/30 06:29:30;;;;;;;377.93;366.33;;;15.40;99.90;;;;;;5057400;28;20186;-91
2023/08/30 06:31:56;;;;;;;363.03;352.00;;;15.60;99.90;;;;;;5056408;28;20205;-90
2023/08/30 06:34:22;;;;;;;360.27;349.53;;;15.50;99.90;;;;;;5057016;28;20210;-90
2023/08/30 06:36:48;;;;;;;377.17;365.33;;;15.60;99.90;;;;;;5056611;28;20566;-90
2023/08/30 06:39:13;;;;;;;395.13;383.07;;;15.60;99.90;;;;;;5056514;28;20661;-90
2023/08/30 06:41:39;;;;;;;385.90;374.13;;;15.40;99.90;;;;;;5056946;28;20234;-89
2023/08/30 06:44:05;;;;;;;379.73;368.23;;;15.50;99.90;;;;;;5054628;28;20214;-90
2023/08/30 06:46:31;;;;;;;366.37;355.23;;;15.40;99.90;;;;;;5039543;28;20180;-90
2023/08/30 06:48:57;;;;;;;356.43;345.33;;;15.50;99.90;;;;;;5027959;28;20549;-91
2023/08/30 06:51:22;;;;;;;360.97;350.00;;;15.70;99.90;;;;;;5030578;28;20216;-89
2023/08/30 06:53:48;;;;;;;362.17;351.17;;;15.80;99.90;;;;;;5022286;28;20197;-89
2023/08/30 06:56:14;;;;;;;372.07;360.63;;;16.00;99.90;;;;;;5003620;28;20719;-88
2023/08/30 06:58:39;;;;;;;383.93;372.40;;;15.90;99.90;;;;;;5030696;28;20181;-90
2023/08/30 07:01:05;;;;;;;388.37;376.70;;;15.80;99.90;;;;;;5023480;28;20214;-89
2023/08/30 07:03:31;;;;;;;371.57;360.07;;;15.80;99.90;;;;;;5011410;28;20279;-89
2023/08/30 07:05:57;;;;;;;363.57;352.70;;;16.10;99.90;;;;;;5033656;28;20178;-89
2023/08/30 07:08:22;;;;;;;384.63;373.03;;;16.10;99.90;;;;;;5023875;28;20257;-90
2023/08/30 07:10:48;;;;;;;373.10;361.90;;;16.20;99.90;;;;;;5027300;28;20741;-89
2023/08/30 07:13:14;;;;;;;374.77;363.43;;;16.30;99.90;;;;;;5003286;28;20205;-89
2023/08/30 07:15:41;;;;;;;326.27;316.50;;;16.40;99.90;;;;;;5018657;28;20182;-91
2023/08/30 07:18:09;;;;;;;345.73;335.37;;;16.30;99.90;;;;;;5020994;28;20200;-90
2023/08/30 07:20:36;;;;;;;339.73;329.67;;;16.40;99.90;;;;;;5016381;28;20652;-89
2023/08/30 07:23:02;;;;;;;349.63;338.60;;;16.40;99.90;;;;;;5038694;28;20191;-89
2023/08/30 07:25:30;;;;;;;376.97;365.57;;;16.40;99.00;;;;;;5038779;28;20272;-90
2023/08/30 07:27:56;;;;;;;370.00;358.97;;;16.00;99.90;;;;;;5020659;28;20762;-89
2023/08/30 07:30:22;;;;;;;367.17;356.20;;;16.00;99.90;;;;;;5037046;28;20219;-90
2023/08/30 07:32:47;;;;;;;375.17;363.73;;;16.20;99.90;;;;;;5038817;28;20835;-90
2023/08/30 07:35:13;;;;;;;376.00;364.67;;;16.50;99.10;;;;;;5039376;28;20233;-90
2023/08/30 07:37:39;;;;;;;325.93;316.43;;;16.60;98.70;;;;;;5038445;28;20271;-91
2023/08/30 07:40:05;;;;;;;312.40;303.30;;;16.80;98.40;;;;;;5035565;28;20216;-90
2023/08/30 07:42:30;;;;;;;315.47;306.27;;;16.80;96.40;;;;;;5037844;28;20208;-90
2023/08/30 07:44:56;;;;;;;325.80;315.63;;;16.80;97.00;;;;;;5051315;28;20196;-87
2023/08/30 07:47:22;;;;;;;403.73;389.33;;;16.90;95.10;;;;;;5039457;28;20196;-90
2023/08/30 07:49:48;;;;;;;359.03;348.40;;;16.60;96.50;;;;;;5039294;28;20210;-89
2023/08/30 07:52:14;;;;;;;337.43;327.07;;;16.70;98.00;;;;;;5039269;28;20304;-89
2023/08/30 07:54:40;;;;;;;330.30;320.53;;;17.00;94.60;;;;;;5038607;28;20207;-88
2023/08/30 07:57:06;;;;;;;267.07;259.27;;;17.10;94.90;;;;;;5038607;28;20186;-90
2023/08/30 07:59:36;;;;;;;307.17;298.17;;;17.20;94.10;;;;;;5017544;28;20178;-89
2023/08/30 08:02:03;;;;;;;356.50;345.67;;;16.90;96.00;;;;;;5037095;28;20188;-90
2023/08/30 08:04:29;;;;;;;337.13;326.73;;;16.80;96.30;;;;;;5037435;28;20197;-90
2023/08/30 08:06:55;;;;;;;333.13;323.33;;;16.90;95.20;;;;;;5036867;28;20219;-89
2023/08/30 08:09:21;;;;;;;263.63;255.90;;;17.20;95.10;;;;;;5036266;28;20268;-90
2023/08/30 08:11:48;;;;;;;300.40;291.63;;;17.50;92.90;;;;;;5038753;28;20202;-90
2023/08/30 08:14:14;;;;;;;297.67;288.93;;;17.50;95.00;;;;;;5038432;28;20196;-89
2023/08/30 08:16:40;;;;;;;305.37;296.37;;;17.40;94.20;;;;;;5038009;28;20181;-90
2023/08/30 08:19:06;;;;;;;373.30;361.87;;;17.30;93.30;;;;;;5037581;28;20531;-89
2023/08/30 08:21:35;;;;;;;331.33;321.57;;;17.20;93.60;;;;;;5037477;28;20204;-90
2023/08/30 08:24:01;;;;;;;295.80;287.27;;;17.60;94.10;;;;;;5037410;28;20251;-90
2023/08/30 08:26:27;;;;;;;275.27;267.13;;;17.60;92.80;;;;;;5037049;28;20724;-89
2023/08/30 08:28:54;;;;;;;280.20;271.90;;;17.90;91.40;;;;;;5036103;28;20327;-91
2023/08/30 08:31:20;;;;;;;276.80;268.63;;;18.00;91.80;;;;;;5038026;28;20622;-89
2023/08/30 08:33:46;;;;;;;295.20;286.20;;;18.20;89.20;;;;;;5035595;28;20221;-89
2023/08/30 08:36:12;;;;;;;295.60;286.97;;;18.30;91.30;;;;;;5037040;28;20182;-90
2023/08/30 08:38:38;;;;;;;335.03;325.23;;;18.10;90.60;;;;;;5036570;28;20272;-90
2023/08/30 08:41:12;;;;;;;316.00;306.73;;;17.80;93.50;;;;;;5022636;28;20203;-89
2023/08/30 08:43:39;;;;;;;303.67;294.90;;;17.60;92.20;;;;;;5030108;28;20218;-89
2023/08/30 08:46:06;;;;;;;333.17;323.10;;;17.80;91.70;;;;;;5018003;28;20241;-90
2023/08/30 08:48:39;;;;;;;295.40;286.80;;;17.60;91.80;;;;;;5017361;28;20197;-88
2023/08/30 08:51:05;;;;;;;300.80;292.17;;;17.70;92.50;;;;;;5016263;28;20241;-89
2023/08/30 08:53:31;;;;;;;258.40;250.83;;;18.20;91.50;;;;;;5017378;28;20790;-90
2023/08/30 08:55:58;;;;;;;308.10;298.90;;;18.20;90.40;;;;;;5014518;28;20184;-90
2023/08/30 08:58:25;;;;;;;314.77;305.57;;;18.00;88.80;;;;;;5014688;28;20189;-90
2023/08/30 09:00:52;;;;;;;353.37;342.23;;;18.00;89.00;;;;;;5016288;28;20189;-90
2023/08/30 09:03:18;;;;;;;320.93;311.07;;;17.90;88.50;;;;;;5002226;28;20240;-89
2023/08/30 09:05:46;;;;;;;303.73;292.80;;;18.10;90.30;;;;;;5024630;28;20236;-90
2023/08/30 09:08:13;;;;;;;281.45;272.65;;;18.30;89.00;;;;;;5038489;28;20211;-89
2023/08/30 09:10:39;;;;;;;274.93;266.73;;;18.70;87.70;;;;;;5053381;28;20862;-89
2023/08/30 09:13:05;;;;;;;295.13;286.30;;;18.30;89.60;;;;;;5055240;28;20231;-90
2023/08/30 09:15:38;;;;;;;311.07;302.07;;;18.10;90.50;;;;;;5056958;28;20183;-91
2023/08/30 09:18:04;;;;;;;267.73;259.90;;;18.20;91.70;;;;;;5057232;28;20187;-90
2023/08/30 09:20:30;;;;;;;310.63;301.55;;;18.50;90.10;;;;;;5056681;28;20266;-90
2023/08/30 09:22:55;;;;;;;293.48;285.13;;;18.70;89.50;;;;;;5055577;28;20241;-89
2023/08/30 09:25:26;;;;;;;289.95;281.00;;;18.80;85.90;;;;;;5038023;28;20192;-91
2023/08/30 09:27:59;;;;;;;287.95;279.52;;;18.80;85.00;;;;;;5056722;28;20675;-90
2023/08/30 09:30:25;;;;;;;277.42;269.42;;;18.90;85.40;;;;;;5061561;28;20211;-91
2023/08/30 09:32:50;;;;;;;261.55;253.88;;;19.20;83.70;;;;;;5057653;28;20248;-90
2023/08/30 09:35:16;;;;;;;265.13;257.35;;;19.00;84.00;;;;;;5056811;28;20262;-91
2023/08/30 09:37:45;;;;;;;417.40;404.55;;;19.20;83.20;;;;;;5036622;28;20239;-89
2023/08/30 09:40:11;;;;;;;334.63;324.80;;;19.40;80.60;;;;;;5026715;28;20185;-90
2023/08/30 09:42:42;;;;;;;311.33;302.38;;;19.20;81.40;;;;;;5016309;28;20191;-91
2023/08/30 09:45:23;;;;;;;336.88;327.17;;;19.20;82.90;;;;;;5016120;28;20213;-89
2023/08/30 09:47:50;;;;;;;336.10;325.73;;;19.30;85.40;;;;;;5015777;28;20226;-91
2023/08/30 09:50:20;;;;;;;333.52;323.95;;;19.60;83.30;;;;;;5016343;28;20174;-90
2023/08/30 09:52:50;;;;;;;331.42;321.83;;;19.30;83.60;;;;;;5014754;28;20177;-90
2023/08/30 09:55:18;;;;;;;353.67;343.20;;;19.50;84.10;;;;;;5015669;28;20181;-89
2023/08/30 09:57:44;;;;;;;457.08;442.70;;;19.90;81.60;;;;;;5016325;28;20170;-89
2023/08/30 10:00:12;;;;;;;396.30;384.10;;;19.80;78.20;;;;;;5016204;28;20197;-90
2023/08/30 10:02:41;;;;;;;336.25;326.52;;;19.40;81.10;;;;;;5017927;28;20173;-91
2023/08/30 10:05:08;;;;;;;403.65;391.20;;;19.30;82.00;;;;;;5031949;28;20719;-90
2023/08/30 10:07:37;;;;;;;345.38;335.02;;;19.60;80.50;;;;;;5030806;28;20847;-91
2023/08/30 10:10:07;;;;;;;485.38;469.75;;;19.40;82.40;;;;;;5024533;28;20174;-93
2023/08/30 10:12:33;;;;;;;323.33;313.67;;;19.50;80.20;;;;;;5027275;28;20191;-91
2023/08/30 10:14:59;;;;;;;398.90;386.83;;;19.00;82.70;;;;;;5030224;28;20270;-91
2023/08/30 10:17:28;;;;;;;479.35;464.38;;;19.60;80.20;;;;;;5025773;28;20256;-89
2023/08/30 10:19:56;;;;;;;474.98;459.65;;;19.70;79.40;;;;;;5030205;28;20184;-90
2023/08/30 10:22:24;;;;;;;505.27;488.98;;;19.80;79.70;;;;;;5031038;28;20227;-90
2023/08/30 10:25:00;;;;;;;360.40;349.67;;;19.70;77.80;;;;;;5037387;28;20211;-90
2023/08/30 10:27:28;;;;;;;464.05;449.63;;;20.20;80.50;;;;;;5039714;28;20188;-91
2023/08/30 10:29:54;;;;;;;495.67;479.45;;;20.50;75.60;;;;;;5037582;28;20192;-92
2023/08/30 10:32:23;;;;;;;525.22;507.45;;;20.20;76.90;;;;;;5036817;28;20228;-92
2023/08/30 10:34:51;;;;;;;482.10;467.02;;;20.10;75.70;;;;;;5021479;28;20707;-91
2023/08/30 10:37:23;;;;;;;552.97;534.42;;;20.30;75.20;;;;;;5038394;28;20192;-91
2023/08/30 10:39:49;;;;;;;511.83;495.20;;;20.40;78.10;;;;;;5024124;28;20252;-91
2023/08/30 10:42:16;;;;;;;522.47;505.25;;;20.70;75.60;;;;;;5020194;28;20213;-93
2023/08/30 10:44:57;;;;;;;562.40;543.40;;;20.10;76.90;;;;;;5031590;28;20203;-92
2023/08/30 10:47:35;;;;;;;504.85;488.50;;;20.20;76.90;;;;;;5038283;28;20188;-91
2023/08/30 10:50:06;;;;;;;465.50;451.02;;;20.50;74.90;;;;;;5019721;28;20182;-92
2023/08/30 10:52:34;;;;;;;521.15;504.45;;;21.10;74.20;;;;;;5000733;28;20182;-93
2023/08/30 10:55:16;;;;;;;451.33;437.45;;;21.50;73.50;;;;;;5021572;28;20189;-92
2023/08/30 10:57:43;;;;;;;489.48;473.98;;;21.40;71.60;;;;;;5029443;28;20346;-92
2023/08/30 11:00:09;;;;;;;547.72;529.60;;;21.90;70.70;;;;;;5028035;28;20185;-92
2023/08/30 11:02:37;;;;;;;585.55;564.90;;;22.00;70.10;;;;;;5024756;28;20510;-93
2023/08/30 11:05:05;;;;;;;614.38;592.67;;;22.20;68.60;;;;;;5026306;28;20181;-92
2023/08/30 11:07:31;;;;;;;624.83;602.55;;;21.90;70.40;;;;;;5031789;28;20267;-92
2023/08/30 11:09:57;;;;;;;588.55;568.03;;;22.00;69.70;;;;;;5043918;28;20176;-93
2023/08/30 11:12:23;;;;;;;550.13;531.72;;;22.20;67.00;;;;;;5059955;28;20208;-93
2023/08/30 11:14:49;;;;;;;620.05;598.25;;;22.80;66.00;;;;;;5062750;28;20311;-93
2023/08/30 11:17:18;;;;;;;498.63;483.13;;;22.80;67.80;;;;;;5040808;28;20267;-93
2023/08/30 11:19:45;;;;;;;486.15;470.92;;;22.80;63.20;;;;;;5032482;28;20200;-91
2023/08/30 11:22:13;;;;;;;530.55;513.67;;;22.60;62.70;;;;;;5010496;28;20201;-90
2023/08/30 11:24:39;;;;;;;661.05;636.40;;;22.40;65.80;;;;;;5013658;28;20987;-93
2023/08/30 11:27:11;;;;;;;498.60;483.20;;;22.40;69.00;;;;;;5028087;28;20170;-91
2023/08/30 11:29:40;;;;;;;523.13;505.98;;;22.70;63.00;;;;;;5008539;28;20182;-92
2023/08/30 11:32:15;;;;;;;501.55;485.65;;;22.60;65.80;;;;;;5010489;28;20213;-90
2023/08/30 11:34:42;;;;;;;509.48;493.40;;;22.80;62.30;;;;;;5038136;28;20216;-91
2023/08/30 11:37:08;;;;;;;527.75;510.88;;;22.10;63.90;;;;;;5025150;28;20188;-92
2023/08/30 11:39:34;;;;;;;512.97;496.75;;;22.60;63.70;;;;;;5041272;28;20192;-89
2023/08/30 11:42:05;;;;;;;1999.90;999.90;;;22.80;62.00;;;;;;5042687;28;20181;-94
2023/08/30 11:44:31;;;;;;;1999.90;999.90;;;22.50;61.10;;;;;;5039437;28;20193;-91
2023/08/30 11:47:00;;;;;;;563.05;544.15;;;22.90;61.90;;;;;;5040251;28;20177;-91
2023/08/30 11:49:27;;;;;;;1999.90;999.90;;;23.30;62.50;;;;;;5033227;28;20180;-92
2023/08/30 11:51:56;;;;;;;1999.90;999.90;;;24.00;57.60;;;;;;5019765;28;20201;-92
2023/08/30 11:54:25;;;;;;;1999.90;999.90;;;23.80;58.50;;;;;;5006434;28;20423;-90
2023/08/30 11:56:51;;;;;;;1999.90;999.90;;;23.60;60.40;;;;;;5021363;28;20204;-90
2023/08/30 11:59:21;;;;;;;1999.90;999.90;;;23.20;60.00;;;;;;5031169;28;20181;-89
2023/08/30 12:01:52;;;;;;;1999.90;999.90;;;23.40;60.50;;;;;;5038303;28;20169;-92
2023/08/30 12:04:18;;;;;;;1999.90;999.90;;;22.90;58.00;;;;;;5036601;28;20216;-92
2023/08/30 12:06:53;;;;;;;1999.90;999.90;;;23.60;58.40;;;;;;5037595;28;20246;-92
2023/08/30 12:09:22;;;;;;;1999.90;999.90;;;23.10;58.90;;;;;;5044350;28;20218;-93